sensor_id;sensor_type;location;lat;lon;timestamp;P1;durP1;ratioP1;P2;durP2;ratioP2
13704;SDS011;6924;52.122;9.952;2023-03-08T00:02:26;5.87;;;5.27;;
13704;SDS011;6924;52.122;9.952;2023-03-08T00:04:52;6.37;;;5.40;;
13704;SDS011;6924;52.122;9.952;2023-03-08T00:07:19;4.93;;;4.53;;
13704;SDS011;6924;52.122;9.952;2023-03-08T00:09:46;5.53;;;4.53;;
13704;SDS011;6924;52.122;9.952;2023-03-08T00:12:13;7.53;;;5.33;;
13704;SDS011;6924;52.122;9.952;2023-03-08T00:14:43;7.37;;;4.43;;
13704;SDS011;6924;52.122;9.952;2023-03-08T00:17:09;5.67;;;4.20;;
13704;SDS011;6924;52.122;9.952;2023-03-08T00:19:37;4.73;;;4.30;;
13704;SDS011;6924;52.122;9.952;2023-03-08T00:22:03;4.63;;;4.20;;
13704;SDS011;6924;52.122;9.952;2023-03-08T00:24:30;4.70;;;4.33;;
13704;SDS011;6924;52.122;9.952;2023-03-08T00:26:56;5.17;;;4.67;;
13704;SDS011;6924;52.122;9.952;2023-03-08T00:29:24;4.17;;;3.77;;
13704;SDS011;6924;52.122;9.952;2023-03-08T00:31:51;3.93;;;3.63;;
13704;SDS011;6924;52.122;9.952;2023-03-08T00:34:17;5.10;;;4.60;;
13704;SDS011;6924;52.122;9.952;2023-03-08T00:36:43;4.83;;;4.30;;
13704;SDS011;6924;52.122;9.952;2023-03-08T00:39:10;4.20;;;3.90;;
13704;SDS011;6924;52.122;9.952;2023-03-08T00:41:38;4.63;;;4.20;;
13704;SDS011;6924;52.122;9.952;2023-03-08T00:44:04;6.60;;;4.03;;
13704;SDS011;6924;52.122;9.952;2023-03-08T00:46:32;7.27;;;4.03;;
13704;SDS011;6924;52.122;9.952;2023-03-08T00:48:58;4.30;;;3.90;;
13704;SDS011;6924;52.122;9.952;2023-03-08T00:51:25;5.83;;;3.90;;
13704;SDS011;6924;52.122;9.952;2023-03-08T00:53:51;4.17;;;3.77;;
13704;SDS011;6924;52.122;9.952;2023-03-08T00:56:18;5.27;;;4.30;;
13704;SDS011;6924;52.122;9.952;2023-03-08T00:58:44;4.10;;;3.70;;
13704;SDS011;6924;52.122;9.952;2023-03-08T01:01:12;5.00;;;3.43;;
13704;SDS011;6924;52.122;9.952;2023-03-08T01:03:42;3.80;;;3.40;;
13704;SDS011;6924;52.122;9.952;2023-03-08T01:06:09;3.20;;;2.90;;
13704;SDS011;6924;52.122;9.952;2023-03-08T01:08:37;3.77;;;3.17;;
13704;SDS011;6924;52.122;9.952;2023-03-08T01:11:06;3.07;;;2.77;;
13704;SDS011;6924;52.122;9.952;2023-03-08T01:13:33;3.63;;;3.33;;
13704;SDS011;6924;52.122;9.952;2023-03-08T01:16:00;3.43;;;3.13;;
13704;SDS011;6924;52.122;9.952;2023-03-08T01:18:27;3.37;;;2.57;;
13704;SDS011;6924;52.122;9.952;2023-03-08T01:20:56;3.13;;;2.73;;
13704;SDS011;6924;52.122;9.952;2023-03-08T01:23:23;3.47;;;2.90;;
13704;SDS011;6924;52.122;9.952;2023-03-08T01:25:56;3.23;;;2.93;;
13704;SDS011;6924;52.122;9.952;2023-03-08T01:28:24;3.37;;;2.80;;
13704;SDS011;6924;52.122;9.952;2023-03-08T01:30:50;5.83;;;3.10;;
13704;SDS011;6924;52.122;9.952;2023-03-08T01:33:17;4.30;;;3.30;;
13704;SDS011;6924;52.122;9.952;2023-03-08T01:35:44;4.47;;;3.20;;
13704;SDS011;6924;52.122;9.952;2023-03-08T01:38:12;3.03;;;2.73;;
13704;SDS011;6924;52.122;9.952;2023-03-08T01:40:39;3.17;;;2.60;;
13704;SDS011;6924;52.122;9.952;2023-03-08T01:43:10;2.90;;;2.70;;
13704;SDS011;6924;52.122;9.952;2023-03-08T01:48:52;2.93;;;2.63;;
13704;SDS011;6924;52.122;9.952;2023-03-08T01:51:23;3.10;;;2.70;;
13704;SDS011;6924;52.122;9.952;2023-03-08T01:53:56;4.93;;;3.00;;
13704;SDS011;6924;52.122;9.952;2023-03-08T01:56:27;2.50;;;2.30;;
13704;SDS011;6924;52.122;9.952;2023-03-08T01:58:54;3.60;;;2.50;;
13704;SDS011;6924;52.122;9.952;2023-03-08T02:01:22;4.23;;;2.90;;
13704;SDS011;6924;52.122;9.952;2023-03-08T02:03:49;3.27;;;2.60;;
13704;SDS011;6924;52.122;9.952;2023-03-08T02:06:16;4.10;;;2.90;;
13704;SDS011;6924;52.122;9.952;2023-03-08T02:08:44;3.50;;;3.10;;
13704;SDS011;6924;52.122;9.952;2023-03-08T02:11:12;2.97;;;2.70;;
13704;SDS011;6924;52.122;9.952;2023-03-08T02:13:40;2.93;;;2.63;;
13704;SDS011;6924;52.122;9.952;2023-03-08T02:16:08;2.67;;;2.47;;
13704;SDS011;6924;52.122;9.952;2023-03-08T02:18:47;5.10;;;3.20;;
13704;SDS011;6924;52.122;9.952;2023-03-08T02:21:15;3.40;;;2.90;;
13704;SDS011;6924;52.122;9.952;2023-03-08T02:23:42;3.57;;;3.07;;
13704;SDS011;6924;52.122;9.952;2023-03-08T02:26:09;3.87;;;3.17;;
13704;SDS011;6924;52.122;9.952;2023-03-08T02:28:35;5.50;;;5.00;;
13704;SDS011;6924;52.122;9.952;2023-03-08T02:31:02;4.07;;;3.57;;
13704;SDS011;6924;52.122;9.952;2023-03-08T02:33:28;3.63;;;3.00;;
13704;SDS011;6924;52.122;9.952;2023-03-08T02:35:56;3.40;;;3.10;;
13704;SDS011;6924;52.122;9.952;2023-03-08T02:38:22;3.27;;;2.97;;
13704;SDS011;6924;52.122;9.952;2023-03-08T02:40:50;3.70;;;3.17;;
13704;SDS011;6924;52.122;9.952;2023-03-08T02:43:17;4.17;;;3.07;;
13704;SDS011;6924;52.122;9.952;2023-03-08T02:45:44;3.93;;;3.57;;
13704;SDS011;6924;52.122;9.952;2023-03-08T02:48:11;4.77;;;3.63;;
13704;SDS011;6924;52.122;9.952;2023-03-08T02:50:38;7.10;;;4.40;;
13704;SDS011;6924;52.122;9.952;2023-03-08T02:53:04;4.47;;;3.43;;
13704;SDS011;6924;52.122;9.952;2023-03-08T02:55:31;4.83;;;4.33;;
13704;SDS011;6924;52.122;9.952;2023-03-08T02:58:01;4.63;;;3.90;;
13704;SDS011;6924;52.122;9.952;2023-03-08T03:00:28;5.00;;;4.50;;
13704;SDS011;6924;52.122;9.952;2023-03-08T03:02:54;5.70;;;4.37;;
13704;SDS011;6924;52.122;9.952;2023-03-08T03:05:21;5.43;;;4.93;;
13704;SDS011;6924;52.122;9.952;2023-03-08T03:07:47;6.67;;;5.97;;
13704;SDS011;6924;52.122;9.952;2023-03-08T03:10:13;6.03;;;5.03;;
13704;SDS011;6924;52.122;9.952;2023-03-08T03:12:40;6.83;;;5.57;;
13704;SDS011;6924;52.122;9.952;2023-03-08T03:15:09;7.93;;;5.23;;
13704;SDS011;6924;52.122;9.952;2023-03-08T03:17:37;5.90;;;5.30;;
13704;SDS011;6924;52.122;9.952;2023-03-08T03:20:03;7.40;;;5.60;;
13704;SDS011;6924;52.122;9.952;2023-03-08T03:22:32;8.30;;;5.23;;
13704;SDS011;6924;52.122;9.952;2023-03-08T03:24:59;7.73;;;5.37;;
13704;SDS011;6924;52.122;9.952;2023-03-08T03:27:25;7.17;;;6.13;;
13704;SDS011;6924;52.122;9.952;2023-03-08T03:29:52;6.47;;;5.43;;
13704;SDS011;6924;52.122;9.952;2023-03-08T03:32:20;8.37;;;6.67;;
13704;SDS011;6924;52.122;9.952;2023-03-08T03:34:46;7.90;;;7.10;;
13704;SDS011;6924;52.122;9.952;2023-03-08T03:37:13;8.30;;;5.83;;
13704;SDS011;6924;52.122;9.952;2023-03-08T03:39:39;6.80;;;6.10;;
13704;SDS011;6924;52.122;9.952;2023-03-08T03:42:06;7.07;;;6.00;;
13704;SDS011;6924;52.122;9.952;2023-03-08T03:44:33;8.57;;;5.83;;
13704;SDS011;6924;52.122;9.952;2023-03-08T03:46:59;6.50;;;5.90;;
13704;SDS011;6924;52.122;9.952;2023-03-08T03:49:27;6.70;;;6.10;;
13704;SDS011;6924;52.122;9.952;2023-03-08T03:51:54;6.77;;;6.07;;
13704;SDS011;6924;52.122;9.952;2023-03-08T03:54:20;6.73;;;5.97;;
13704;SDS011;6924;52.122;9.952;2023-03-08T03:56:47;6.53;;;5.43;;
13704;SDS011;6924;52.122;9.952;2023-03-08T03:59:13;7.40;;;6.10;;
13704;SDS011;6924;52.122;9.952;2023-03-08T04:01:40;8.27;;;5.93;;
13704;SDS011;6924;52.122;9.952;2023-03-08T04:04:06;6.70;;;5.63;;
13704;SDS011;6924;52.122;9.952;2023-03-08T04:06:35;6.47;;;5.77;;
13704;SDS011;6924;52.122;9.952;2023-03-08T04:09:02;6.20;;;5.50;;
13704;SDS011;6924;52.122;9.952;2023-03-08T04:11:31;7.07;;;5.53;;
13704;SDS011;6924;52.122;9.952;2023-03-08T04:13:59;7.60;;;5.63;;
13704;SDS011;6924;52.122;9.952;2023-03-08T04:16:27;7.67;;;5.63;;
13704;SDS011;6924;52.122;9.952;2023-03-08T04:18:55;5.97;;;4.87;;
13704;SDS011;6924;52.122;9.952;2023-03-08T04:21:22;5.83;;;5.23;;
13704;SDS011;6924;52.122;9.952;2023-03-08T04:23:51;10.00;;;5.60;;
13704;SDS011;6924;52.122;9.952;2023-03-08T04:26:18;5.63;;;4.90;;
13704;SDS011;6924;52.122;9.952;2023-03-08T04:28:44;5.43;;;4.83;;
13704;SDS011;6924;52.122;9.952;2023-03-08T04:31:12;5.57;;;5.00;;
13704;SDS011;6924;52.122;9.952;2023-03-08T04:33:38;7.10;;;5.07;;
13704;SDS011;6924;52.122;9.952;2023-03-08T04:36:05;5.80;;;5.00;;
13704;SDS011;6924;52.122;9.952;2023-03-08T04:38:32;5.40;;;4.40;;
13704;SDS011;6924;52.122;9.952;2023-03-08T04:40:59;6.60;;;5.30;;
13704;SDS011;6924;52.122;9.952;2023-03-08T04:43:34;6.07;;;5.30;;
13704;SDS011;6924;52.122;9.952;2023-03-08T04:46:00;6.87;;;5.80;;
13704;SDS011;6924;52.122;9.952;2023-03-08T04:48:27;6.47;;;5.77;;
13704;SDS011;6924;52.122;9.952;2023-03-08T04:50:54;8.63;;;6.70;;
13704;SDS011;6924;52.122;9.952;2023-03-08T04:53:22;8.17;;;5.60;;
13704;SDS011;6924;52.122;9.952;2023-03-08T04:55:49;8.83;;;5.53;;
13704;SDS011;6924;52.122;9.952;2023-03-08T04:58:17;5.13;;;4.63;;
13704;SDS011;6924;52.122;9.952;2023-03-08T05:00:44;5.27;;;4.77;;
13704;SDS011;6924;52.122;9.952;2023-03-08T05:03:11;4.70;;;4.20;;
13704;SDS011;6924;52.122;9.952;2023-03-08T05:05:43;4.43;;;4.03;;
13704;SDS011;6924;52.122;9.952;2023-03-08T05:08:10;4.77;;;4.17;;
13704;SDS011;6924;52.122;9.952;2023-03-08T05:10:37;5.40;;;4.50;;
13704;SDS011;6924;52.122;9.952;2023-03-08T05:13:04;4.40;;;4.00;;
13704;SDS011;6924;52.122;9.952;2023-03-08T05:15:31;6.53;;;4.30;;
13704;SDS011;6924;52.122;9.952;2023-03-08T05:17:58;5.03;;;4.47;;
13704;SDS011;6924;52.122;9.952;2023-03-08T05:20:24;6.67;;;5.13;;
13704;SDS011;6924;52.122;9.952;2023-03-08T05:22:50;6.17;;;5.00;;
13704;SDS011;6924;52.122;9.952;2023-03-08T05:25:17;4.60;;;4.17;;
13704;SDS011;6924;52.122;9.952;2023-03-08T05:27:43;5.57;;;4.33;;
13704;SDS011;6924;52.122;9.952;2023-03-08T05:30:10;8.53;;;4.50;;
13704;SDS011;6924;52.122;9.952;2023-03-08T05:32:38;5.00;;;4.23;;
13704;SDS011;6924;52.122;9.952;2023-03-08T05:35:05;4.90;;;4.43;;
13704;SDS011;6924;52.122;9.952;2023-03-08T05:37:33;6.10;;;4.67;;
13704;SDS011;6924;52.122;9.952;2023-03-08T05:39:59;5.47;;;4.60;;
13704;SDS011;6924;52.122;9.952;2023-03-08T05:42:26;6.43;;;4.47;;
13704;SDS011;6924;52.122;9.952;2023-03-08T05:44:52;7.77;;;5.13;;
13704;SDS011;6924;52.122;9.952;2023-03-08T05:47:18;7.67;;;5.43;;
13704;SDS011;6924;52.122;9.952;2023-03-08T05:49:46;6.07;;;4.97;;
13704;SDS011;6924;52.122;9.952;2023-03-08T05:52:12;8.60;;;5.00;;
13704;SDS011;6924;52.122;9.952;2023-03-08T05:54:39;5.37;;;4.50;;
13704;SDS011;6924;52.122;9.952;2023-03-08T05:57:05;6.67;;;4.97;;
13704;SDS011;6924;52.122;9.952;2023-03-08T05:59:32;6.53;;;5.03;;
13704;SDS011;6924;52.122;9.952;2023-03-08T06:01:58;5.43;;;4.80;;
13704;SDS011;6924;52.122;9.952;2023-03-08T06:04:25;6.40;;;5.60;;
13704;SDS011;6924;52.122;9.952;2023-03-08T06:06:52;5.73;;;4.80;;
13704;SDS011;6924;52.122;9.952;2023-03-08T06:09:19;8.07;;;5.93;;
13704;SDS011;6924;52.122;9.952;2023-03-08T06:11:45;7.17;;;6.07;;
13704;SDS011;6924;52.122;9.952;2023-03-08T06:14:12;7.57;;;5.37;;
13704;SDS011;6924;52.122;9.952;2023-03-08T06:16:38;7.00;;;5.63;;
13704;SDS011;6924;52.122;9.952;2023-03-08T06:19:04;6.80;;;6.10;;
13704;SDS011;6924;52.122;9.952;2023-03-08T06:21:31;7.17;;;5.83;;
13704;SDS011;6924;52.122;9.952;2023-03-08T06:23:58;7.07;;;6.27;;
13704;SDS011;6924;52.122;9.952;2023-03-08T06:26:25;8.70;;;6.03;;
13704;SDS011;6924;52.122;9.952;2023-03-08T06:28:51;8.70;;;6.33;;
13704;SDS011;6924;52.122;9.952;2023-03-08T06:31:18;6.87;;;6.10;;
13704;SDS011;6924;52.122;9.952;2023-03-08T06:33:44;8.20;;;6.43;;
13704;SDS011;6924;52.122;9.952;2023-03-08T06:36:12;6.90;;;5.93;;
13704;SDS011;6924;52.122;9.952;2023-03-08T06:38:40;9.83;;;6.57;;
13704;SDS011;6924;52.122;9.952;2023-03-08T06:41:09;7.40;;;6.10;;
13704;SDS011;6924;52.122;9.952;2023-03-08T06:43:36;7.87;;;6.60;;
13704;SDS011;6924;52.122;9.952;2023-03-08T06:46:02;7.97;;;7.07;;
13704;SDS011;6924;52.122;9.952;2023-03-08T06:48:29;7.73;;;6.93;;
13704;SDS011;6924;52.122;9.952;2023-03-08T06:50:56;9.10;;;7.30;;
13704;SDS011;6924;52.122;9.952;2023-03-08T06:53:22;9.40;;;7.60;;
13704;SDS011;6924;52.122;9.952;2023-03-08T06:55:48;10.63;;;7.10;;
13704;SDS011;6924;52.122;9.952;2023-03-08T06:58:16;10.70;;;8.30;;
13704;SDS011;6924;52.122;9.952;2023-03-08T07:00:43;9.27;;;7.43;;
13704;SDS011;6924;52.122;9.952;2023-03-08T07:03:09;9.83;;;8.03;;
13704;SDS011;6924;52.122;9.952;2023-03-08T07:05:37;11.37;;;8.97;;
13704;SDS011;6924;52.122;9.952;2023-03-08T07:08:04;8.87;;;7.97;;
13704;SDS011;6924;52.122;9.952;2023-03-08T07:10:31;9.30;;;8.30;;
13704;SDS011;6924;52.122;9.952;2023-03-08T07:12:58;10.07;;;8.23;;
13704;SDS011;6924;52.122;9.952;2023-03-08T07:15:26;10.40;;;8.83;;
13704;SDS011;6924;52.122;9.952;2023-03-08T07:17:53;8.93;;;8.00;;
13704;SDS011;6924;52.122;9.952;2023-03-08T07:20:21;11.00;;;9.07;;
13704;SDS011;6924;52.122;9.952;2023-03-08T07:22:49;11.83;;;8.17;;
13704;SDS011;6924;52.122;9.952;2023-03-08T07:25:16;11.67;;;8.17;;
13704;SDS011;6924;52.122;9.952;2023-03-08T07:27:44;9.33;;;7.93;;
13704;SDS011;6924;52.122;9.952;2023-03-08T07:30:11;10.63;;;7.87;;
13704;SDS011;6924;52.122;9.952;2023-03-08T07:32:41;10.07;;;8.27;;
13704;SDS011;6924;52.122;9.952;2023-03-08T07:35:08;10.83;;;9.23;;
13704;SDS011;6924;52.122;9.952;2023-03-08T07:37:36;10.70;;;9.20;;
13704;SDS011;6924;52.122;9.952;2023-03-08T07:40:03;13.97;;;9.23;;
13704;SDS011;6924;52.122;9.952;2023-03-08T07:42:31;10.37;;;9.27;;
13704;SDS011;6924;52.122;9.952;2023-03-08T07:44:57;11.80;;;9.10;;
13704;SDS011;6924;52.122;9.952;2023-03-08T07:47:24;11.33;;;8.87;;
13704;SDS011;6924;52.122;9.952;2023-03-08T07:49:51;10.77;;;8.50;;
13704;SDS011;6924;52.122;9.952;2023-03-08T07:52:18;10.07;;;8.53;;
13704;SDS011;6924;52.122;9.952;2023-03-08T07:54:44;11.57;;;9.90;;
13704;SDS011;6924;52.122;9.952;2023-03-08T07:57:11;10.73;;;7.87;;
13704;SDS011;6924;52.122;9.952;2023-03-08T07:59:39;10.80;;;8.73;;
13704;SDS011;6924;52.122;9.952;2023-03-08T08:02:07;13.87;;;9.27;;
13704;SDS011;6924;52.122;9.952;2023-03-08T08:04:35;11.93;;;9.63;;
13704;SDS011;6924;52.122;9.952;2023-03-08T08:07:03;12.33;;;9.77;;
13704;SDS011;6924;52.122;9.952;2023-03-08T08:09:30;11.33;;;8.73;;
13704;SDS011;6924;52.122;9.952;2023-03-08T08:11:57;11.60;;;9.33;;
13704;SDS011;6924;52.122;9.952;2023-03-08T08:14:24;12.80;;;9.77;;
13704;SDS011;6924;52.122;9.952;2023-03-08T08:16:50;11.43;;;8.87;;
13704;SDS011;6924;52.122;9.952;2023-03-08T08:19:17;10.33;;;9.13;;
13704;SDS011;6924;52.122;9.952;2023-03-08T08:21:43;10.87;;;8.93;;
13704;SDS011;6924;52.122;9.952;2023-03-08T08:24:11;10.40;;;9.30;;
13704;SDS011;6924;52.122;9.952;2023-03-08T08:26:38;12.97;;;10.50;;
13704;SDS011;6924;52.122;9.952;2023-03-08T08:29:04;13.67;;;9.10;;
13704;SDS011;6924;52.122;9.952;2023-03-08T08:31:31;10.47;;;9.33;;
13704;SDS011;6924;52.122;9.952;2023-03-08T08:33:58;11.93;;;10.30;;
13704;SDS011;6924;52.122;9.952;2023-03-08T08:36:25;10.57;;;9.13;;
13704;SDS011;6924;52.122;9.952;2023-03-08T08:38:52;10.13;;;8.53;;
13704;SDS011;6924;52.122;9.952;2023-03-08T08:41:21;11.57;;;9.60;;
13704;SDS011;6924;52.122;9.952;2023-03-08T08:43:48;11.27;;;8.83;;
13704;SDS011;6924;52.122;9.952;2023-03-08T08:46:16;11.87;;;8.57;;
13704;SDS011;6924;52.122;9.952;2023-03-08T08:48:43;11.97;;;9.93;;
13704;SDS011;6924;52.122;9.952;2023-03-08T08:51:10;12.30;;;9.83;;
13704;SDS011;6924;52.122;9.952;2023-03-08T08:53:38;11.80;;;10.37;;
13704;SDS011;6924;52.122;9.952;2023-03-08T08:56:11;10.80;;;9.70;;
13704;SDS011;6924;52.122;9.952;2023-03-08T08:58:39;13.73;;;10.03;;
13704;SDS011;6924;52.122;9.952;2023-03-08T09:01:11;11.37;;;10.30;;
13704;SDS011;6924;52.122;9.952;2023-03-08T09:03:39;11.20;;;9.83;;
13704;SDS011;6924;52.122;9.952;2023-03-08T09:06:05;16.10;;;11.00;;
13704;SDS011;6924;52.122;9.952;2023-03-08T09:08:32;9.67;;;8.53;;
13704;SDS011;6924;52.122;9.952;2023-03-08T09:11:01;10.93;;;9.33;;
13704;SDS011;6924;52.122;9.952;2023-03-08T09:13:28;13.83;;;10.30;;
13704;SDS011;6924;52.122;9.952;2023-03-08T09:15:56;11.70;;;9.37;;
13704;SDS011;6924;52.122;9.952;2023-03-08T09:18:22;11.40;;;8.50;;
13704;SDS011;6924;52.122;9.952;2023-03-08T09:20:49;10.60;;;9.07;;
13704;SDS011;6924;52.122;9.952;2023-03-08T09:23:15;10.40;;;9.27;;
13704;SDS011;6924;52.122;9.952;2023-03-08T09:25:42;9.73;;;8.73;;
13704;SDS011;6924;52.122;9.952;2023-03-08T09:28:09;11.30;;;9.40;;
13704;SDS011;6924;52.122;9.952;2023-03-08T09:30:36;13.10;;;9.77;;
13704;SDS011;6924;52.122;9.952;2023-03-08T09:33:04;10.87;;;8.90;;
13704;SDS011;6924;52.122;9.952;2023-03-08T09:35:30;10.13;;;9.13;;
13704;SDS011;6924;52.122;9.952;2023-03-08T09:37:56;11.00;;;9.90;;
13704;SDS011;6924;52.122;9.952;2023-03-08T09:40:25;11.50;;;10.30;;
13704;SDS011;6924;52.122;9.952;2023-03-08T09:42:54;10.57;;;9.33;;
13704;SDS011;6924;52.122;9.952;2023-03-08T09:45:24;11.37;;;9.90;;
13704;SDS011;6924;52.122;9.952;2023-03-08T09:47:54;12.60;;;9.57;;
13704;SDS011;6924;52.122;9.952;2023-03-08T09:50:39;9.53;;;8.30;;
13704;SDS011;6924;52.122;9.952;2023-03-08T09:53:15;12.83;;;9.43;;
13704;SDS011;6924;52.122;9.952;2023-03-08T09:55:47;9.07;;;8.17;;
13704;SDS011;6924;52.122;9.952;2023-03-08T09:58:21;13.03;;;9.77;;
13704;SDS011;6924;52.122;9.952;2023-03-08T10:00:55;11.90;;;10.37;;
13704;SDS011;6924;52.122;9.952;2023-03-08T10:03:47;11.53;;;9.10;;
13704;SDS011;6924;52.122;9.952;2023-03-08T10:06:24;11.07;;;9.63;;
13704;SDS011;6924;52.122;9.952;2023-03-08T10:08:59;10.50;;;9.40;;
13704;SDS011;6924;52.122;9.952;2023-03-08T10:11:30;10.77;;;8.87;;
13704;SDS011;6924;52.122;9.952;2023-03-08T10:14:02;10.83;;;9.23;;
13704;SDS011;6924;52.122;9.952;2023-03-08T10:16:39;10.70;;;8.80;;
13704;SDS011;6924;52.122;9.952;2023-03-08T10:19:12;10.60;;;9.50;;
13704;SDS011;6924;52.122;9.952;2023-03-08T10:21:43;12.93;;;8.93;;
13704;SDS011;6924;52.122;9.952;2023-03-08T10:24:13;11.43;;;8.93;;
13704;SDS011;6924;52.122;9.952;2023-03-08T10:26:43;8.93;;;8.03;;
13704;SDS011;6924;52.122;9.952;2023-03-08T10:29:10;9.13;;;8.00;;
13704;SDS011;6924;52.122;9.952;2023-03-08T10:31:37;8.40;;;7.50;;
13704;SDS011;6924;52.122;9.952;2023-03-08T10:34:08;8.93;;;8.03;;
13704;SDS011;6924;52.122;9.952;2023-03-08T10:36:47;8.03;;;7.23;;
13704;SDS011;6924;52.122;9.952;2023-03-08T10:39:15;6.93;;;6.23;;
13704;SDS011;6924;52.122;9.952;2023-03-08T10:41:44;7.77;;;6.93;;
13704;SDS011;6924;52.122;9.952;2023-03-08T10:44:14;8.23;;;7.43;;
13704;SDS011;6924;52.122;9.952;2023-03-08T10:46:52;7.53;;;6.70;;
13704;SDS011;6924;52.122;9.952;2023-03-08T10:49:18;7.43;;;6.43;;
13704;SDS011;6924;52.122;9.952;2023-03-08T10:51:53;9.90;;;7.13;;
13704;SDS011;6924;52.122;9.952;2023-03-08T10:54:22;8.57;;;7.60;;
13704;SDS011;6924;52.122;9.952;2023-03-08T10:56:50;8.50;;;7.60;;
13704;SDS011;6924;52.122;9.952;2023-03-08T10:59:19;9.50;;;8.60;;
13704;SDS011;6924;52.122;9.952;2023-03-08T11:01:52;8.80;;;7.90;;
13704;SDS011;6924;52.122;9.952;2023-03-08T11:04:21;8.60;;;7.77;;
13704;SDS011;6924;52.122;9.952;2023-03-08T11:06:48;8.33;;;7.43;;
13704;SDS011;6924;52.122;9.952;2023-03-08T11:09:20;8.87;;;7.37;;
13704;SDS011;6924;52.122;9.952;2023-03-08T11:11:48;8.70;;;7.53;;
13704;SDS011;6924;52.122;9.952;2023-03-08T11:14:14;9.10;;;6.63;;
13704;SDS011;6924;52.122;9.952;2023-03-08T11:16:44;7.00;;;6.30;;
13704;SDS011;6924;52.122;9.952;2023-03-08T11:19:29;7.70;;;6.90;;
13704;SDS011;6924;52.122;9.952;2023-03-08T11:22:03;7.03;;;6.33;;
13704;SDS011;6924;52.122;9.952;2023-03-08T11:24:43;8.03;;;7.23;;
13704;SDS011;6924;52.122;9.952;2023-03-08T11:27:23;7.43;;;6.57;;
13704;SDS011;6924;52.122;9.952;2023-03-08T11:30:02;6.47;;;5.80;;
13704;SDS011;6924;52.122;9.952;2023-03-08T11:32:45;7.17;;;5.63;;
13704;SDS011;6924;52.122;9.952;2023-03-08T11:35:20;4.20;;;3.87;;
13704;SDS011;6924;52.122;9.952;2023-03-08T11:37:54;4.23;;;3.70;;
13704;SDS011;6924;52.122;9.952;2023-03-08T11:40:27;4.77;;;3.47;;
13704;SDS011;6924;52.122;9.952;2023-03-08T11:43:05;3.50;;;3.20;;
13704;SDS011;6924;52.122;9.952;2023-03-08T11:45:45;4.30;;;3.50;;
13704;SDS011;6924;52.122;9.952;2023-03-08T11:48:33;1.67;;;1.30;;
13704;SDS011;6924;52.122;9.952;2023-03-08T11:51:13;1.97;;;1.53;;
13704;SDS011;6924;52.122;9.952;2023-03-08T11:53:50;3.20;;;1.70;;
13704;SDS011;6924;52.122;9.952;2023-03-08T11:56:32;2.27;;;1.73;;
13704;SDS011;6924;52.122;9.952;2023-03-08T11:59:08;2.93;;;1.90;;
13704;SDS011;6924;52.122;9.952;2023-03-08T12:01:44;2.73;;;2.20;;
13704;SDS011;6924;52.122;9.952;2023-03-08T12:04:15;3.73;;;2.37;;
13704;SDS011;6924;52.122;9.952;2023-03-08T12:06:44;4.20;;;3.07;;
13704;SDS011;6924;52.122;9.952;2023-03-08T12:09:14;4.67;;;3.33;;
13704;SDS011;6924;52.122;9.952;2023-03-08T12:11:50;4.77;;;3.67;;
13704;SDS011;6924;52.122;9.952;2023-03-08T12:14:25;5.27;;;3.83;;
13704;SDS011;6924;52.122;9.952;2023-03-08T12:16:55;5.07;;;3.70;;
13704;SDS011;6924;52.122;9.952;2023-03-08T12:19:29;4.83;;;4.10;;
13704;SDS011;6924;52.122;9.952;2023-03-08T12:22:05;5.17;;;4.20;;
13704;SDS011;6924;52.122;9.952;2023-03-08T12:24:44;4.30;;;3.90;;
13704;SDS011;6924;52.122;9.952;2023-03-08T12:27:16;3.73;;;3.30;;
13704;SDS011;6924;52.122;9.952;2023-03-08T12:29:48;5.20;;;3.90;;
13704;SDS011;6924;52.122;9.952;2023-03-08T12:32:19;5.23;;;4.43;;
13704;SDS011;6924;52.122;9.952;2023-03-08T12:34:47;4.77;;;3.63;;
13704;SDS011;6924;52.122;9.952;2023-03-08T12:37:25;3.50;;;3.20;;
13704;SDS011;6924;52.122;9.952;2023-03-08T12:39:57;3.07;;;2.77;;
13704;SDS011;6924;52.122;9.952;2023-03-08T12:42:29;2.60;;;2.27;;
13704;SDS011;6924;52.122;9.952;2023-03-08T12:45:12;4.20;;;2.90;;
13704;SDS011;6924;52.122;9.952;2023-03-08T12:47:55;2.87;;;2.53;;
13704;SDS011;6924;52.122;9.952;2023-03-08T12:50:25;3.40;;;2.90;;
13704;SDS011;6924;52.122;9.952;2023-03-08T12:52:51;2.97;;;2.23;;
13704;SDS011;6924;52.122;9.952;2023-03-08T12:55:21;2.37;;;2.17;;
13704;SDS011;6924;52.122;9.952;2023-03-08T12:57:57;3.03;;;2.60;;
13704;SDS011;6924;52.122;9.952;2023-03-08T13:00:27;2.57;;;2.37;;
13704;SDS011;6924;52.122;9.952;2023-03-08T13:02:59;4.63;;;3.27;;
13704;SDS011;6924;52.122;9.952;2023-03-08T13:05:29;5.43;;;4.93;;
13704;SDS011;6924;52.122;9.952;2023-03-08T13:08:00;4.83;;;4.43;;
13704;SDS011;6924;52.122;9.952;2023-03-08T13:10:31;6.20;;;4.53;;
13704;SDS011;6924;52.122;9.952;2023-03-08T13:13:04;6.03;;;5.23;;
13704;SDS011;6924;52.122;9.952;2023-03-08T13:15:42;6.17;;;5.07;;
13704;SDS011;6924;52.122;9.952;2023-03-08T13:18:12;7.13;;;5.07;;
13704;SDS011;6924;52.122;9.952;2023-03-08T13:20:49;5.67;;;5.07;;
13704;SDS011;6924;52.122;9.952;2023-03-08T13:23:33;6.77;;;6.17;;
13704;SDS011;6924;52.122;9.952;2023-03-08T13:26:11;8.93;;;5.60;;
13704;SDS011;6924;52.122;9.952;2023-03-08T13:28:47;6.47;;;5.40;;
13704;SDS011;6924;52.122;9.952;2023-03-08T13:31:14;6.03;;;4.03;;
13704;SDS011;6924;52.122;9.952;2023-03-08T13:33:45;5.67;;;4.00;;
13704;SDS011;6924;52.122;9.952;2023-03-08T13:36:15;6.03;;;4.83;;
13704;SDS011;6924;52.122;9.952;2023-03-08T13:38:43;4.87;;;3.97;;
13704;SDS011;6924;52.122;9.952;2023-03-08T13:41:09;5.63;;;5.13;;
13704;SDS011;6924;52.122;9.952;2023-03-08T13:43:36;7.60;;;5.77;;
13704;SDS011;6924;52.122;9.952;2023-03-08T13:46:04;9.60;;;6.00;;
13704;SDS011;6924;52.122;9.952;2023-03-08T13:48:41;6.83;;;5.23;;
13704;SDS011;6924;52.122;9.952;2023-03-08T13:51:09;5.60;;;5.10;;
13704;SDS011;6924;52.122;9.952;2023-03-08T13:53:43;6.37;;;5.20;;
13704;SDS011;6924;52.122;9.952;2023-03-08T13:56:17;6.43;;;5.73;;
13704;SDS011;6924;52.122;9.952;2023-03-08T13:58:48;6.30;;;5.10;;
13704;SDS011;6924;52.122;9.952;2023-03-08T14:01:17;6.57;;;5.17;;
13704;SDS011;6924;52.122;9.952;2023-03-08T14:03:46;6.37;;;4.97;;
13704;SDS011;6924;52.122;9.952;2023-03-08T14:06:15;6.33;;;5.53;;
13704;SDS011;6924;52.122;9.952;2023-03-08T14:08:44;6.03;;;5.47;;
13704;SDS011;6924;52.122;9.952;2023-03-08T14:11:12;5.73;;;5.17;;
13704;SDS011;6924;52.122;9.952;2023-03-08T14:13:43;5.67;;;5.00;;
13704;SDS011;6924;52.122;9.952;2023-03-08T14:16:22;5.33;;;4.83;;
13704;SDS011;6924;52.122;9.952;2023-03-08T14:18:53;5.30;;;4.70;;
13704;SDS011;6924;52.122;9.952;2023-03-08T14:21:21;6.83;;;5.40;;
13704;SDS011;6924;52.122;9.952;2023-03-08T14:23:50;6.90;;;5.13;;
13704;SDS011;6924;52.122;9.952;2023-03-08T14:26:22;6.23;;;5.40;;
13704;SDS011;6924;52.122;9.952;2023-03-08T14:32:00;5.47;;;4.87;;
13704;SDS011;6924;52.122;9.952;2023-03-08T14:34:30;6.00;;;5.17;;
13704;SDS011;6924;52.122;9.952;2023-03-08T14:37:00;5.13;;;4.53;;
13704;SDS011;6924;52.122;9.952;2023-03-08T14:39:30;6.50;;;4.73;;
13704;SDS011;6924;52.122;9.952;2023-03-08T14:42:06;6.43;;;5.43;;
13704;SDS011;6924;52.122;9.952;2023-03-08T14:44:34;8.57;;;5.53;;
13704;SDS011;6924;52.122;9.952;2023-03-08T14:47:07;5.43;;;4.87;;
13704;SDS011;6924;52.122;9.952;2023-03-08T14:49:35;6.77;;;5.90;;
13704;SDS011;6924;52.122;9.952;2023-03-08T14:52:01;5.30;;;4.70;;
13704;SDS011;6924;52.122;9.952;2023-03-08T14:54:29;5.13;;;4.63;;
13704;SDS011;6924;52.122;9.952;2023-03-08T14:56:58;6.00;;;5.00;;
13704;SDS011;6924;52.122;9.952;2023-03-08T14:59:27;6.03;;;5.43;;
13704;SDS011;6924;52.122;9.952;2023-03-08T15:01:53;5.27;;;4.77;;
13704;SDS011;6924;52.122;9.952;2023-03-08T15:04:22;5.93;;;5.33;;
13704;SDS011;6924;52.122;9.952;2023-03-08T15:06:49;5.43;;;4.90;;
13704;SDS011;6924;52.122;9.952;2023-03-08T15:09:19;8.73;;;6.40;;
13704;SDS011;6924;52.122;9.952;2023-03-08T15:11:46;16.80;;;11.77;;
13704;SDS011;6924;52.122;9.952;2023-03-08T15:14:16;20.50;;;12.47;;
13704;SDS011;6924;52.122;9.952;2023-03-08T15:16:42;15.60;;;10.93;;